createdAt,value
2018-06-30T00:00:11.322Z,88.30
2018-06-30T00:05:07.840Z,88.00
2018-06-30T00:07:36.196Z,88.60
2018-06-30T00:10:04.624Z,89.00
2018-06-30T00:15:01.057Z,89.00
2018-06-30T00:17:29.441Z,90.00
2018-06-30T00:19:57.955Z,90.60
2018-06-30T00:22:26.365Z,90.70
2018-06-30T00:24:54.878Z,91.00
2018-06-30T00:27:28.255Z,91.30
2018-06-30T00:29:57.595Z,91.20
2018-06-30T00:32:25.992Z,91.10
2018-06-30T00:34:54.562Z,91.10
2018-06-30T00:37:22.990Z,91.50
2018-06-30T00:39:51.468Z,91.50
2018-06-30T00:42:20.075Z,91.70
2018-06-30T00:44:48.596Z,92.00
2018-06-30T00:47:17.023Z,92.30
2018-06-30T00:49:45.449Z,92.30
2018-06-30T00:54:41.985Z,92.70
2018-06-30T00:57:10.413Z,93.10
2018-06-30T00:59:38.819Z,93.30
2018-06-30T01:02:07.307Z,93.20
2018-06-30T01:04:35.707Z,93.10
2018-06-30T01:07:04.162Z,93.20
2018-06-30T01:09:32.609Z,93.20
2018-06-30T01:12:01.041Z,93.20
2018-06-30T01:14:29.459Z,92.90
2018-06-30T01:16:57.902Z,93.10
2018-06-30T01:19:26.326Z,93.40
2018-06-30T01:21:54.758Z,93.70
2018-06-30T01:24:23.164Z,94.20
2018-06-30T01:26:51.611Z,94.30
2018-06-30T01:29:20.022Z,94.50
2018-06-30T01:31:48.445Z,94.80
2018-06-30T01:34:16.844Z,95.30
2018-06-30T01:36:45.289Z,94.80
2018-06-30T01:39:13.696Z,94.80
2018-06-30T01:41:42.164Z,94.90
2018-06-30T01:44:10.562Z,95.00
2018-06-30T01:46:38.987Z,94.90
2018-06-30T01:49:07.383Z,94.90
2018-06-30T01:54:03.939Z,95.00
2018-06-30T01:59:00.451Z,95.00
2018-06-30T02:01:28.879Z,95.20
2018-06-30T02:03:57.323Z,95.60
2018-06-30T02:06:25.782Z,95.70
2018-06-30T02:08:54.171Z,95.30
2018-06-30T02:11:22.588Z,95.40
2018-06-30T02:16:19.113Z,95.40
2018-06-30T02:18:47.588Z,95.70
2018-06-30T02:21:15.992Z,96.10
2018-06-30T02:23:44.389Z,96.60
2018-06-30T02:26:12.811Z,96.60
2018-06-30T02:28:41.202Z,97.10
2018-06-30T02:31:09.611Z,97.50
2018-06-30T02:33:38.054Z,97.70
2018-06-30T02:36:06.470Z,98.00
2018-06-30T02:41:03.053Z,97.80
2018-06-30T02:43:31.476Z,98.00
2018-06-30T02:45:59.932Z,98.10
2018-06-30T02:48:28.379Z,98.10
2018-06-30T02:50:56.831Z,98.00
2018-06-30T02:53:25.270Z,98.40
2018-06-30T02:55:53.677Z,98.40
2018-06-30T02:58:22.093Z,98.40
2018-06-30T03:03:18.609Z,98.90
2018-06-30T03:05:47.008Z,99.40
2018-06-30T03:08:15.604Z,99.60
2018-06-30T03:10:44.017Z,99.60
2018-06-30T03:13:12.443Z,99.60
2018-06-30T03:15:40.841Z,99.60
2018-06-30T03:18:09.250Z,99.60
2018-06-30T03:20:37.698Z,99.40
2018-06-30T03:23:06.424Z,99.30
2018-06-30T03:25:34.859Z,99.30
2018-06-30T03:28:03.280Z,99.30
2018-06-30T03:30:31.693Z,99.60
2018-06-30T03:33:00.128Z,99.60
2018-06-30T03:35:28.557Z,99.20
2018-06-30T03:37:56.994Z,99.20
2018-06-30T03:40:25.436Z,99.60
2018-06-30T03:42:53.867Z,99.60
2018-06-30T03:45:22.290Z,99.70
2018-06-30T03:47:50.721Z,99.90
2018-06-30T03:50:19.171Z,99.00
2018-06-30T03:52:47.597Z,98.00
2018-06-30T03:55:16.013Z,97.40
2018-06-30T03:57:44.831Z,96.90
2018-06-30T04:00:13.247Z,96.90
2018-06-30T04:02:41.654Z,96.00
2018-06-30T04:05:22.280Z,94.80
2018-06-30T04:07:50.836Z,93.60
2018-06-30T04:12:47.592Z,93.20
2018-06-30T04:15:16.311Z,93.40
2018-06-30T04:17:45.000Z,93.60
2018-06-30T04:20:13.708Z,92.70
2018-06-30T04:22:42.372Z,91.90
2018-06-30T04:25:10.963Z,92.70
2018-06-30T04:27:39.446Z,91.90
2018-06-30T04:30:08.133Z,91.70
2018-06-30T04:32:36.655Z,92.20
2018-06-30T04:35:05.979Z,91.90
2018-06-30T04:37:34.705Z,90.80
2018-06-30T04:40:03.357Z,90.70
2018-06-30T04:42:31.875Z,91.00
2018-06-30T04:45:00.550Z,90.80
2018-06-30T04:47:29.665Z,90.00
2018-06-30T04:49:58.552Z,90.70
2018-06-30T04:52:27.023Z,91.70
2018-06-30T04:54:55.826Z,92.20
2018-06-30T04:57:24.344Z,91.50
2018-06-30T04:59:52.815Z,90.70
2018-06-30T05:02:21.378Z,91.00
2018-06-30T05:04:49.966Z,90.10
2018-06-30T05:07:18.508Z,89.20
2018-06-30T05:09:46.993Z,87.90
2018-06-30T05:12:15.432Z,88.80
2018-06-30T05:14:43.997Z,88.70
2018-06-30T05:17:12.581Z,89.00
2018-06-30T05:19:41.128Z,89.90
2018-06-30T05:22:09.612Z,90.10
2018-06-30T05:24:38.132Z,88.40
2018-06-30T05:27:07.045Z,88.40
2018-06-30T05:29:35.678Z,88.30
2018-06-30T05:32:04.360Z,88.50
2018-06-30T05:34:32.986Z,88.50
2018-06-30T05:37:01.470Z,89.70
2018-06-30T05:39:29.933Z,87.40
2018-06-30T05:41:58.467Z,86.70
2018-06-30T05:44:26.935Z,85.30
2018-06-30T05:46:55.469Z,85.00
2018-06-30T05:49:24.085Z,85.50
2018-06-30T05:51:52.586Z,85.30
2018-06-30T05:54:21.153Z,85.30
2018-06-30T05:56:49.615Z,84.80
2018-06-30T05:59:18.099Z,85.20
2018-06-30T06:01:46.809Z,85.70
2018-06-30T06:04:15.560Z,86.70
2018-06-30T06:06:44.250Z,86.00
2018-06-30T06:09:13.377Z,85.20
2018-06-30T06:11:42.547Z,85.30
2018-06-30T06:14:11.550Z,83.60
2018-06-30T06:16:40.197Z,82.80
2018-06-30T06:19:09.142Z,81.90
2018-06-30T06:21:37.615Z,82.30
2018-06-30T06:24:06.194Z,81.90
2018-06-30T06:26:34.772Z,80.80
2018-06-30T06:29:03.220Z,81.40
2018-06-30T06:31:31.686Z,81.20
2018-06-30T06:34:00.115Z,80.60
2018-06-30T06:36:28.561Z,80.50
2018-06-30T06:38:57.047Z,81.20
2018-06-30T06:41:26.746Z,81.40
2018-06-30T06:43:55.256Z,81.30
2018-06-30T06:46:23.671Z,81.20
2018-06-30T06:48:52.128Z,81.00
2018-06-30T06:51:20.553Z,80.30
2018-06-30T06:53:49.002Z,80.50
2018-06-30T06:56:17.454Z,80.30
2018-06-30T06:58:45.906Z,79.40
2018-06-30T07:01:14.341Z,80.50
2018-06-30T07:03:42.770Z,81.10
2018-06-30T07:06:11.168Z,80.80
2018-06-30T07:08:39.679Z,80.20
2018-06-30T07:11:08.107Z,77.80
2018-06-30T07:13:36.587Z,77.20
2018-06-30T07:16:05.066Z,77.30
2018-06-30T07:18:33.766Z,76.50
2018-06-30T07:21:02.341Z,76.60
2018-06-30T07:23:30.935Z,76.50
2018-06-30T07:25:59.520Z,75.80
2018-06-30T07:28:28.074Z,75.20
2018-06-30T07:33:24.762Z,75.10
2018-06-30T07:35:53.253Z,73.60
2018-06-30T07:38:21.831Z,73.40
2018-06-30T07:40:50.401Z,71.90
2018-06-30T07:43:21.793Z,71.60
2018-06-30T07:45:50.277Z,72.20
2018-06-30T07:48:18.800Z,72.00
2018-06-30T07:50:47.349Z,72.00
2018-06-30T07:53:16.008Z,70.80
2018-06-30T07:55:44.563Z,70.80
2018-06-30T07:58:13.165Z,69.60
2018-06-30T08:00:41.656Z,68.70
2018-06-30T08:03:10.219Z,68.20
2018-06-30T08:05:38.834Z,69.20
2018-06-30T08:08:07.403Z,68.60
2018-06-30T08:10:35.997Z,68.70
2018-06-30T08:13:04.439Z,68.00
2018-06-30T08:18:01.208Z,67.00
2018-06-30T08:20:29.743Z,67.00
2018-06-30T08:22:58.316Z,66.60
2018-06-30T08:25:26.926Z,67.00
2018-06-30T08:27:55.481Z,66.90
2018-06-30T08:30:24.121Z,66.20
2018-06-30T08:32:52.625Z,65.80
2018-06-30T08:35:21.300Z,65.30
2018-06-30T08:37:49.775Z,65.40
2018-06-30T08:40:18.303Z,65.10
2018-06-30T08:42:46.792Z,64.50
2018-06-30T08:45:15.245Z,64.50
2018-06-30T08:47:43.651Z,63.20
2018-06-30T08:50:12.165Z,63.20
2018-06-30T08:52:40.655Z,62.30
2018-06-30T08:55:09.184Z,62.60
2018-06-30T08:57:37.788Z,62.60
2018-06-30T09:00:06.545Z,61.70
2018-06-30T09:02:34.988Z,61.40
2018-06-30T09:05:03.623Z,61.60
2018-06-30T09:07:32.217Z,60.80
2018-06-30T09:10:01.101Z,60.60
2018-06-30T09:12:29.670Z,60.10
2018-06-30T09:14:58.151Z,59.90
2018-06-30T09:17:26.633Z,59.60
2018-06-30T09:19:55.048Z,59.80
2018-06-30T09:22:23.698Z,58.70
2018-06-30T09:24:52.188Z,58.90
2018-06-30T09:27:20.585Z,59.40
2018-06-30T09:29:49.264Z,57.90
2018-06-30T09:32:17.523Z,57.90
2018-06-30T09:34:46.035Z,57.80
2018-06-30T09:37:14.500Z,56.50
2018-06-30T09:39:42.953Z,55.80
2018-06-30T09:42:11.346Z,55.90
2018-06-30T09:44:39.795Z,54.80
2018-06-30T09:47:08.511Z,54.30
2018-06-30T09:49:36.888Z,54.80
2018-06-30T09:52:05.328Z,54.10
2018-06-30T09:54:33.727Z,53.70
2018-06-30T09:57:02.245Z,54.20
2018-06-30T09:59:30.729Z,54.50
2018-06-30T10:01:59.143Z,53.90
2018-06-30T10:04:27.659Z,53.20
2018-06-30T10:06:56.084Z,54.40
2018-06-30T10:09:24.483Z,52.30
2018-06-30T10:11:52.954Z,53.00
2018-06-30T10:14:21.315Z,51.90
2018-06-30T10:16:49.737Z,52.50
2018-06-30T10:19:18.175Z,51.60
2018-06-30T10:21:46.684Z,50.50
2018-06-30T10:24:15.049Z,51.90
2018-06-30T10:26:43.517Z,51.80
2018-06-30T10:29:11.868Z,51.90
2018-06-30T10:31:40.258Z,50.20
2018-06-30T10:34:08.618Z,52.10
2018-06-30T10:39:08.604Z,50.60
2018-06-30T10:41:36.968Z,50.10
2018-06-30T10:44:05.442Z,50.60
2018-06-30T10:46:33.851Z,49.30
2018-06-30T10:49:02.239Z,49.10
2018-06-30T10:51:30.624Z,48.60
2018-06-30T10:53:58.981Z,48.70
2018-06-30T10:56:27.393Z,48.70
2018-06-30T10:58:55.809Z,48.60
2018-06-30T11:01:24.307Z,48.70
2018-06-30T11:03:52.709Z,48.30
2018-06-30T11:06:21.095Z,47.50
2018-06-30T11:08:49.549Z,47.10
2018-06-30T11:11:17.995Z,47.00
2018-06-30T11:13:46.407Z,47.10
2018-06-30T11:16:14.790Z,47.40
2018-06-30T11:18:43.210Z,47.10
2018-06-30T11:21:11.598Z,45.10
2018-06-30T11:23:40.020Z,45.50
2018-06-30T11:26:08.386Z,46.00
2018-06-30T12:44:41.041Z,40.80
2018-06-30T12:50:12.035Z,43.10
2018-06-30T12:52:40.486Z,42.80
2018-06-30T12:55:09.060Z,42.50
2018-06-30T12:57:37.607Z,41.90
2018-06-30T13:00:06.295Z,42.50
2018-06-30T13:02:34.819Z,42.50
2018-06-30T13:05:03.514Z,42.50
2018-06-30T13:07:32.012Z,41.90
2018-06-30T13:10:00.582Z,41.10
2018-06-30T13:12:29.116Z,42.30
2018-06-30T13:14:57.606Z,42.50
2018-06-30T13:17:26.107Z,42.30
2018-06-30T13:19:54.661Z,41.70
2018-06-30T13:22:23.215Z,42.20
2018-06-30T13:24:51.723Z,42.90
2018-06-30T13:27:20.411Z,43.50
2018-06-30T13:29:48.898Z,43.20
2018-06-30T13:32:17.401Z,43.10
2018-06-30T13:34:45.856Z,43.00
2018-06-30T13:37:14.358Z,42.50
2018-06-30T13:39:42.894Z,41.80
2018-06-30T13:42:11.388Z,42.80
2018-06-30T13:44:39.922Z,41.80
2018-06-30T13:47:08.388Z,42.40
2018-06-30T13:49:36.976Z,42.60
2018-06-30T13:52:05.510Z,41.90
2018-06-30T13:54:33.948Z,41.30
2018-06-30T13:57:02.506Z,42.30
2018-06-30T13:59:30.939Z,42.80
2018-06-30T14:01:59.464Z,42.90
2018-06-30T14:04:27.981Z,42.70
2018-06-30T14:06:56.447Z,43.70
2018-06-30T14:09:25.134Z,43.40
2018-06-30T14:11:53.583Z,44.80
2018-06-30T14:14:22.043Z,44.90
2018-06-30T14:16:50.526Z,45.50
2018-06-30T14:19:18.974Z,45.00
2018-06-30T14:21:47.534Z,45.20
2018-06-30T14:24:15.963Z,46.20
2018-06-30T14:26:44.409Z,46.40
2018-06-30T14:29:12.834Z,46.10
2018-06-30T14:34:09.365Z,45.80
2018-06-30T14:36:37.843Z,45.80
2018-06-30T14:39:09.481Z,45.60
2018-06-30T14:41:38.264Z,46.20
2018-06-30T14:44:06.726Z,46.90
2018-06-30T14:46:35.275Z,46.00
2018-06-30T14:51:32.604Z,46.90
2018-06-30T14:54:01.221Z,46.60
2018-06-30T14:56:29.758Z,46.60
2018-06-30T14:58:58.164Z,46.10
2018-06-30T15:01:26.732Z,46.50
2018-06-30T15:03:55.183Z,46.80
2018-06-30T15:06:23.614Z,47.60
2018-06-30T15:08:52.061Z,47.90
2018-06-30T15:11:20.503Z,47.40
2018-06-30T15:13:48.930Z,47.90
2018-06-30T15:16:17.426Z,47.80
2018-06-30T15:18:45.936Z,47.50
2018-06-30T15:21:14.343Z,47.20
2018-06-30T15:23:42.786Z,48.60
2018-06-30T15:26:11.227Z,48.40
2018-06-30T15:28:39.667Z,47.80
2018-06-30T15:33:36.207Z,47.10
2018-06-30T15:36:04.802Z,47.50
2018-06-30T15:38:33.151Z,46.80
2018-06-30T15:41:01.584Z,47.00
2018-06-30T15:43:30.012Z,47.90
2018-06-30T15:45:58.459Z,47.30
2018-06-30T15:48:26.908Z,46.90
2018-06-30T15:53:23.509Z,46.80
2018-06-30T15:55:51.933Z,47.40
2018-06-30T15:58:20.433Z,47.30
2018-06-30T16:03:17.270Z,47.60
2018-06-30T16:05:45.690Z,46.80
2018-06-30T16:08:14.184Z,47.00
2018-06-30T16:10:42.590Z,46.80
2018-06-30T16:13:11.107Z,46.30
2018-06-30T16:15:39.507Z,46.70
2018-06-30T16:18:08.083Z,46.70
2018-06-30T16:20:36.559Z,46.50
2018-06-30T16:25:33.105Z,46.70
2018-06-30T16:30:29.611Z,46.30
2018-06-30T16:32:58.086Z,45.80
2018-06-30T16:35:26.547Z,46.20
2018-06-30T16:37:54.986Z,46.20
2018-06-30T16:40:23.450Z,46.00
2018-06-30T16:42:51.899Z,46.50
2018-06-30T16:45:20.303Z,46.00
2018-06-30T16:47:48.739Z,47.00
2018-06-30T16:50:17.146Z,46.80
2018-06-30T16:52:45.612Z,46.60
2018-06-30T16:55:14.101Z,46.60
2018-06-30T16:57:42.526Z,47.00
2018-06-30T17:00:11.055Z,46.80
2018-06-30T17:02:39.488Z,46.80
2018-06-30T17:05:07.943Z,47.10
2018-06-30T17:07:36.372Z,47.40
2018-06-30T17:10:04.864Z,46.90
2018-06-30T17:12:33.315Z,47.00
2018-06-30T17:15:01.776Z,46.90
2018-06-30T17:17:30.203Z,47.30
2018-06-30T17:19:58.744Z,47.10
2018-06-30T17:22:27.144Z,46.80
2018-06-30T17:27:23.667Z,46.90
2018-06-30T17:29:52.115Z,46.60
2018-06-30T17:32:20.515Z,46.70
2018-06-30T17:34:48.958Z,46.80
2018-06-30T17:37:17.428Z,47.20
2018-06-30T17:42:13.976Z,47.40
2018-06-30T17:44:42.505Z,47.30
2018-06-30T17:47:10.959Z,47.40
2018-06-30T17:49:39.409Z,46.70
2018-06-30T17:52:07.847Z,46.70
2018-06-30T17:54:36.275Z,46.90
2018-06-30T17:57:04.848Z,47.80
2018-06-30T17:59:33.283Z,46.90
2018-06-30T18:02:01.723Z,47.70
2018-06-30T18:04:30.159Z,47.20
2018-06-30T18:06:58.599Z,47.10
2018-06-30T18:09:27.133Z,46.40
2018-06-30T18:11:55.581Z,46.40
2018-06-30T18:14:24.043Z,46.40
2018-06-30T18:19:20.590Z,46.30
2018-06-30T18:21:49.030Z,46.30
2018-06-30T18:24:17.460Z,46.50
2018-06-30T18:29:14.045Z,47.20
2018-06-30T18:31:42.507Z,47.70
2018-06-30T18:34:10.959Z,47.50
2018-06-30T18:36:39.426Z,47.60
2018-06-30T18:39:10.367Z,47.80
2018-06-30T18:41:38.837Z,47.30
2018-06-30T18:44:07.635Z,46.80
2018-06-30T18:46:36.217Z,46.70
2018-06-30T18:49:05.116Z,46.60
2018-06-30T18:51:33.641Z,46.60
2018-06-30T18:54:02.102Z,46.50
2018-06-30T18:56:30.617Z,46.40
2018-06-30T18:58:59.029Z,46.30
2018-06-30T19:01:27.502Z,46.30
2018-06-30T19:03:55.932Z,46.30
2018-06-30T19:06:24.403Z,46.20
2018-06-30T19:08:52.885Z,46.20
2018-06-30T19:13:49.440Z,46.30
2018-06-30T19:16:17.961Z,46.90
2018-06-30T19:18:46.386Z,47.30
2018-06-30T19:21:14.810Z,47.80
2018-06-30T19:23:43.294Z,47.50
2018-06-30T19:26:11.744Z,47.50
2018-06-30T19:28:40.201Z,47.60
2018-06-30T19:31:08.867Z,46.10
2018-06-30T19:33:37.298Z,45.90
2018-06-30T19:38:33.944Z,44.10
2018-06-30T19:43:30.499Z,41.40
2018-06-30T19:48:27.067Z,42.60
2018-06-30T19:53:23.679Z,40.60
2018-06-30T19:55:52.035Z,39.60
2018-06-30T19:58:20.474Z,39.70
2018-06-30T20:00:48.873Z,40.00
2018-06-30T20:03:17.362Z,39.10
2018-06-30T20:05:45.783Z,38.90
2018-06-30T20:08:14.219Z,38.00
2018-06-30T20:10:42.695Z,37.30
2018-06-30T20:13:11.111Z,37.30
2018-06-30T20:15:39.537Z,37.00
2018-06-30T20:18:08.036Z,37.40
2018-06-30T20:20:36.476Z,36.70
2018-06-30T20:23:05.034Z,36.20
2018-06-30T20:25:33.446Z,36.50
2018-06-30T20:28:01.898Z,36.60
2018-06-30T20:30:30.350Z,36.00
2018-06-30T20:32:58.790Z,35.80
2018-06-30T20:35:27.233Z,35.90
2018-06-30T20:37:55.692Z,36.20
2018-06-30T20:40:24.119Z,36.80
2018-06-30T20:42:52.560Z,37.10
2018-06-30T20:45:21.139Z,36.90
2018-06-30T20:47:49.603Z,35.30
2018-06-30T20:50:17.948Z,35.40
2018-06-30T20:52:46.398Z,35.40
2018-06-30T20:55:14.854Z,35.40
2018-06-30T20:57:43.342Z,35.50
2018-06-30T21:00:11.847Z,36.20
2018-06-30T21:02:40.287Z,35.20
2018-06-30T21:07:37.720Z,35.00
2018-06-30T21:10:06.262Z,34.60
2018-06-30T21:12:34.761Z,34.90
2018-06-30T21:15:03.326Z,34.80
2018-06-30T21:17:31.827Z,34.80
2018-06-30T21:20:00.303Z,35.20
2018-06-30T21:22:28.787Z,34.70
2018-06-30T21:24:57.343Z,34.60
2018-06-30T21:27:25.832Z,34.60
2018-06-30T21:29:54.290Z,34.60
2018-06-30T21:34:57.404Z,34.50
2018-06-30T21:37:25.823Z,34.40
2018-06-30T21:39:54.247Z,34.40
2018-06-30T21:42:22.679Z,34.40
2018-06-30T21:44:51.146Z,34.40
2018-06-30T21:47:19.563Z,34.30
2018-06-30T21:49:48.198Z,34.30
2018-06-30T21:52:16.856Z,34.40
2018-06-30T21:54:45.300Z,34.20
2018-06-30T21:57:13.934Z,34.20
2018-06-30T21:59:42.406Z,34.80
2018-06-30T22:02:10.839Z,35.40
2018-06-30T22:04:39.402Z,35.70
2018-06-30T22:07:07.841Z,35.60
2018-06-30T22:09:36.284Z,35.90
2018-06-30T22:12:04.794Z,36.80
2018-06-30T22:14:33.253Z,36.20
2018-06-30T22:17:01.724Z,36.80
2018-06-30T22:19:30.339Z,36.80
2018-06-30T22:21:58.730Z,37.00
2018-06-30T22:24:27.198Z,37.10
2018-06-30T22:26:55.655Z,37.40
2018-06-30T22:29:24.102Z,37.60
2018-06-30T22:31:52.556Z,37.80
2018-06-30T22:34:21.029Z,38.60
2018-06-30T22:36:49.502Z,38.10
2018-06-30T22:39:29.345Z,38.30
2018-06-30T22:41:57.785Z,38.90
2018-06-30T22:44:26.263Z,38.70
2018-06-30T22:46:54.760Z,39.00
2018-06-30T22:49:23.248Z,39.30
2018-06-30T22:51:51.706Z,39.40
2018-06-30T22:54:20.257Z,39.70
2018-06-30T22:56:48.696Z,39.80
2018-06-30T22:59:17.399Z,40.20
2018-06-30T23:01:45.852Z,40.50
2018-06-30T23:04:14.298Z,40.40
2018-06-30T23:06:42.801Z,40.40
2018-06-30T23:09:11.263Z,40.90
2018-06-30T23:14:07.827Z,41.60
2018-06-30T23:19:04.518Z,41.50
2018-06-30T23:21:32.985Z,41.40
2018-06-30T23:24:01.408Z,41.50
2018-06-30T23:26:29.861Z,42.00
2018-06-30T23:28:58.283Z,42.60
2018-06-30T23:31:26.792Z,42.80
2018-06-30T23:36:23.453Z,43.30
2018-06-30T23:38:51.919Z,43.10
2018-06-30T23:41:20.440Z,43.20
2018-06-30T23:43:48.946Z,43.30
2018-06-30T23:46:17.450Z,43.50
2018-06-30T23:48:45.903Z,43.80
2018-06-30T23:51:14.450Z,44.10
2018-06-30T23:53:42.917Z,44.20
